Wind From: 11-12-2017 12:03 Until: 12-12-2017 06:00 warning for: Wind Level: Orange info button

Power and phone distribution networks may be disrupted for relatively long periods., Roofs and chimneys can be damaged. , Tree branches may break. , Vehicles can be deported. , Traffic may be disrupted, particularly on secondary roads in forest areas. Limit your trips. , Limit your speed in highway driving, especially if you drive a vehicle or hitch sensitive to wind. , Do not go for walks in forests or along the coast., In town, be vigilant against possible falling objects., Do not work on roofs and do not touch any electrical line fallen on the ground., Store or secure sensitive objects to wind or likely to be damaged., Always install power generators outside buildings. 


Meteo18 Weather Cam more information Meteo18 Weather Cam


Thunder radar more information blitzortung!


Rain radar more information rain snow radar


Visit our other weather sites:

Template documentation
and downloads

And another site



Weather Underground History page Text

Daily Summary for November 6, 2017 Units:  Metric    English   Both
« Previous Day
Next Day »
Daily Weekly Monthly Yearly Custom
  High: Low: Average:
Temperature: 9.3 °C 3.1 °C 5.8 °C
Dew Point: 5.2 °C 1.1 °C 2.8 °C
Humidity: 94 % 63 % 82 %
Wind Speed: 25.7 km/h 0.0 km/h 7.9 km/h
Wind Gust: 40.2 km/h - -
Wind:- - SSW
Pressure: 1026.0 hPa 1021.2 hPa -
Precipitation: 0.3 mm    
Historical Graphs
 
 
Tabular Data for November 6, 2017
Time Temperature Dew Point Pressure Wind Wind Speed Wind Gust Humidity Rainfall Rate (Hourly)
00:02 4.1 °C 2.6 °C 1021.2 hPa WNW 1.6 km/h 9.7 km/h 90 % 0.0 mm
00:07 4.1 °C 2.8 °C 1021.2 hPa NW 3.2 km/h 9.7 km/h 91 % 0.0 mm
00:12 4.0 °C 2.7 °C 1021.6 hPa Calm   9.7 km/h 91 % 0.0 mm
00:17 3.9 °C 2.6 °C 1021.6 hPa North 1.6 km/h 9.7 km/h 91 % 0.0 mm
00:22 3.9 °C 2.6 °C 1021.6 hPa Calm   8.0 km/h 91 % 0.0 mm
00:32 3.9 °C 2.7 °C 1021.6 hPa WNW 4.8 km/h 11.3 km/h 92 % 0.0 mm
00:37 3.9 °C 2.7 °C 1021.6 hPa West 4.8 km/h 11.3 km/h 92 % 0.0 mm
00:42 3.9 °C 2.7 °C 1021.6 hPa NW 4.8 km/h 11.3 km/h 92 % 0.0 mm
00:47 3.9 °C 2.7 °C 1021.6 hPa WNW 9.7 km/h 14.5 km/h 92 % 0.0 mm
00:52 3.9 °C 2.7 °C 1021.6 hPa WNW 6.4 km/h 14.5 km/h 92 % 0.0 mm
01:02 3.8 °C 2.6 °C 1021.6 hPa WNW 1.6 km/h 14.5 km/h 92 % 0.0 mm
01:07 3.8 °C 2.6 °C 1021.6 hPa NW 1.6 km/h 14.5 km/h 92 % 0.0 mm
01:12 3.7 °C 2.5 °C 1021.6 hPa NW 1.6 km/h 11.3 km/h 92 % 0.0 mm
01:17 3.7 °C 2.5 °C 1021.6 hPa NNW 3.2 km/h 9.7 km/h 92 % 0.0 mm
01:22 3.6 °C 2.4 °C 1021.6 hPa WNW 3.2 km/h 8.0 km/h 92 % 0.0 mm
01:32 3.6 °C 2.6 °C 1021.6 hPa Calm   9.7 km/h 93 % 0.0 mm
01:37 3.7 °C 2.7 °C 1021.6 hPa WSW 4.8 km/h 9.7 km/h 93 % 0.0 mm
01:42 3.6 °C 2.6 °C 1021.6 hPa North 1.6 km/h 9.7 km/h 93 % 0.0 mm
01:47 3.6 °C 2.6 °C 1021.6 hPa NW 4.8 km/h 9.7 km/h 93 % 0.0 mm
01:52 3.7 °C 2.7 °C 1021.6 hPa North 1.6 km/h 8.0 km/h 93 % 0.0 mm
01:57 3.6 °C 2.6 °C 1021.6 hPa NNW 3.2 km/h 9.7 km/h 93 % 0.0 mm
02:02 3.6 °C 2.6 °C 1021.9 hPa NW 1.6 km/h 9.7 km/h 93 % 0.0 mm
02:07 3.6 °C 2.6 °C 1021.9 hPa NW 1.6 km/h 8.0 km/h 93 % 0.0 mm
02:12 3.6 °C 2.6 °C 1021.9 hPa NW 3.2 km/h 8.0 km/h 93 % 0.0 mm
02:17 3.5 °C 2.5 °C 1021.9 hPa NNW 1.6 km/h 8.0 km/h 93 % 0.0 mm
02:22 3.4 °C 2.4 °C 1022.2 hPa North 3.2 km/h 8.0 km/h 93 % 0.0 mm
02:32 3.6 °C 2.7 °C 1021.9 hPa NNW 3.2 km/h 11.3 km/h 94 % 0.0 mm
02:37 3.5 °C 2.6 °C 1021.9 hPa NW 4.8 km/h 11.3 km/h 94 % 0.0 mm
02:42 3.5 °C 2.6 °C 1021.9 hPa NW 1.6 km/h 11.3 km/h 94 % 0.0 mm
02:47 3.5 °C 2.6 °C 1021.9 hPa WNW 4.8 km/h 9.7 km/h 94 % 0.0 mm
02:52 3.5 °C 2.6 °C 1021.9 hPa NW 1.6 km/h 9.7 km/h 94 % 0.0 mm
02:57 3.6 °C 2.7 °C 1022.2 hPa Calm   9.7 km/h 94 % 0.0 mm
03:02 3.6 °C 2.7 °C 1022.2 hPa WNW 1.6 km/h 11.3 km/h 94 % 0.0 mm
03:07 3.6 °C 2.7 °C 1022.2 hPa WNW 1.6 km/h 11.3 km/h 94 % 0.0 mm
03:12 3.7 °C 2.8 °C 1021.9 hPa NW 1.6 km/h 8.0 km/h 94 % 0.0 mm
03:17 3.7 °C 2.8 °C 1022.2 hPa WNW 4.8 km/h 9.7 km/h 94 % 0.0 mm
03:22 3.7 °C 2.8 °C 1022.2 hPa NNW 8.0 km/h 9.7 km/h 94 % 0.0 mm
03:27 3.7 °C 2.8 °C 1021.9 hPa WNW 3.2 km/h 9.7 km/h 94 % 0.0 mm
03:32 3.7 °C 2.8 °C 1021.9 hPa Calm   9.7 km/h 94 % 0.0 mm
03:37 3.6 °C 2.7 °C 1021.9 hPa NNE 1.6 km/h 9.7 km/h 94 % 0.0 mm
03:42 3.6 °C 2.7 °C 1022.2 hPa West 3.2 km/h 8.0 km/h 94 % 0.0 mm
03:47 3.1 °C 2.2 °C 1022.2 hPa WNW 4.8 km/h 8.0 km/h 94 % 0.0 mm
08:27 3.4 °C 2.5 °C 1024.3 hPa WNW 1.6 km/h 8.0 km/h 94 % 0.0 mm
08:32 3.5 °C 2.6 °C 1024.3 hPa NW 1.6 km/h 8.0 km/h 94 % 0.0 mm
08:42 3.6 °C 2.7 °C 1024.3 hPa North 6.4 km/h 8.0 km/h 94 % 0.0 mm
08:47 3.7 °C 2.8 °C 1024.3 hPa North 3.2 km/h 9.7 km/h 94 % 0.0 mm
08:52 3.8 °C 2.8 °C 1024.3 hPa NW 1.6 km/h 11.3 km/h 93 % 0.0 mm
09:02 3.9 °C 2.9 °C 1024.6 hPa WNW 6.4 km/h 12.9 km/h 93 % 0.0 mm
09:12 4.2 °C 3.2 °C 1024.6 hPa North 3.2 km/h 12.9 km/h 93 % 0.3 mm
09:17 4.4 °C 3.4 °C 1024.6 hPa North 6.4 km/h 12.9 km/h 93 % 0.3 mm
09:22 4.5 °C 3.5 °C 1024.6 hPa NW 11.3 km/h 17.7 km/h 93 % 0.3 mm
09:27 4.6 °C 3.6 °C 1024.6 hPa NW 12.9 km/h 17.7 km/h 93 % 0.3 mm
09:32 4.8 °C 3.8 °C 1024.6 hPa NNW 8.0 km/h 17.7 km/h 93 % 0.3 mm
09:42 5.2 °C 4.0 °C 1024.9 hPa NNW 4.8 km/h 16.1 km/h 92 % 0.3 mm
09:47 5.3 °C 4.0 °C 1024.9 hPa NW 4.8 km/h 19.3 km/h 91 % 0.3 mm
09:52 5.4 °C 4.0 °C 1024.9 hPa North 20.9 km/h 20.9 km/h 91 % 0.3 mm
09:57 5.5 °C 4.0 °C 1024.9 hPa NNW 9.7 km/h 20.9 km/h 90 % 0.3 mm
10:02 5.5 °C 4.0 °C 1024.9 hPa NNW 17.7 km/h 24.1 km/h 90 % 0.3 mm
10:12 5.4 °C 3.9 °C 1024.9 hPa NNE 9.7 km/h 24.1 km/h 90 % 0.0 mm
10:17 5.4 °C 3.9 °C 1024.9 hPa NW 8.0 km/h 24.1 km/h 90 % 0.0 mm
10:22 5.6 °C 4.1 °C 1024.6 hPa NNW 16.1 km/h 24.1 km/h 90 % 0.0 mm
10:27 5.5 °C 3.8 °C 1024.6 hPa NNE 14.5 km/h 24.1 km/h 89 % 0.0 mm
10:32 5.6 °C 4.1 °C 1024.9 hPa NE 16.1 km/h 30.6 km/h 90 % 0.0 mm
10:37 5.7 °C 4.0 °C 1024.6 hPa NNE 8.0 km/h 30.6 km/h 89 % 0.0 mm
10:42 5.7 °C 3.9 °C 1024.6 hPa North 17.7 km/h 29.0 km/h 88 % 0.0 mm
10:47 5.6 °C 3.9 °C 1024.9 hPa NNW 9.7 km/h 29.0 km/h 89 % 0.0 mm
10:52 5.7 °C 4.0 °C 1024.9 hPa NNW 8.0 km/h 30.6 km/h 89 % 0.0 mm
10:57 5.7 °C 4.0 °C 1024.9 hPa WNW 12.9 km/h 30.6 km/h 89 % 0.0 mm
11:02 5.9 °C 4.2 °C 1024.9 hPa NNW 6.4 km/h 30.6 km/h 89 % 0.0 mm
11:07 6.1 °C 4.4 °C 1024.9 hPa NNW 11.3 km/h 30.6 km/h 89 % 0.0 mm
11:12 6.3 °C 4.5 °C 1024.9 hPa NNE 17.7 km/h 25.7 km/h 88 % 0.0 mm
11:17 6.4 °C 4.4 °C 1024.9 hPa North 16.1 km/h 25.7 km/h 87 % 0.0 mm
11:22 6.5 °C 4.3 °C 1024.9 hPa NE 22.5 km/h 25.7 km/h 86 % 0.0 mm
11:27 6.6 °C 4.6 °C 1024.9 hPa NE 22.5 km/h 27.4 km/h 87 % 0.0 mm
11:37 7.1 °C 4.7 °C 1024.9 hPa NE 12.9 km/h 32.2 km/h 85 % 0.0 mm
11:42 7.2 °C 4.8 °C 1024.9 hPa NNE 14.5 km/h 32.2 km/h 85 % 0.0 mm
11:47 7.2 °C 4.7 °C 1024.9 hPa NNW 20.9 km/h 30.6 km/h 84 % 0.0 mm
11:52 7.2 °C 4.8 °C 1024.9 hPa ENE 9.7 km/h 30.6 km/h 85 % 0.0 mm
11:57 7.3 °C 4.8 °C 1024.9 hPa NNE 22.5 km/h 30.6 km/h 84 % 0.0 mm
12:02 7.4 °C 4.9 °C 1024.9 hPa North 14.5 km/h 29.0 km/h 84 % 0.0 mm
12:07 7.3 °C 4.6 °C 1024.9 hPa NE 8.0 km/h 25.7 km/h 83 % 0.0 mm
12:12 7.6 °C 5.1 °C 1024.6 hPa ENE 14.5 km/h 25.7 km/h 84 % 0.0 mm
12:17 7.7 °C 4.6 °C 1024.6 hPa North 12.9 km/h 32.2 km/h 81 % 0.0 mm
12:22 7.9 °C 5.2 °C 1024.6 hPa West 8.0 km/h 32.2 km/h 83 % 0.0 mm
12:27 8.2 °C 5.0 °C 1024.6 hPa NNW 12.9 km/h 32.2 km/h 80 % 0.0 mm
12:32 8.2 °C 4.8 °C 1024.6 hPa NE 6.4 km/h 24.1 km/h 79 % 0.0 mm
12:42 8.1 °C 4.3 °C 1024.6 hPa NE 12.9 km/h 32.2 km/h 77 % 0.0 mm
12:47 8.2 °C 4.4 °C 1024.3 hPa NNW 9.7 km/h 27.4 km/h 77 % 0.0 mm
12:52 8.2 °C 4.2 °C 1024.3 hPa ENE 16.1 km/h 29.0 km/h 76 % 0.0 mm
12:57 8.3 °C 4.1 °C 1024.3 hPa NNW 16.1 km/h 32.2 km/h 75 % 0.0 mm
13:02 8.6 °C 4.2 °C 1024.3 hPa North 17.7 km/h 32.2 km/h 74 % 0.0 mm
13:07 8.5 °C 4.3 °C 1024.3 hPa North 14.5 km/h 32.2 km/h 75 % 0.0 mm
13:12 8.5 °C 4.3 °C 1024.3 hPa North 9.7 km/h 29.0 km/h 75 % 0.0 mm
13:17 8.4 °C 4.2 °C 1024.3 hPa North 20.9 km/h 27.4 km/h 75 % 0.0 mm
13:22 8.4 °C 4.2 °C 1024.3 hPa NNE 12.9 km/h 30.6 km/h 75 % 0.0 mm
13:27 8.5 °C 4.3 °C 1024.3 hPa NE 6.4 km/h 30.6 km/h 75 % 0.0 mm
13:32 8.7 °C 4.3 °C 1024.3 hPa NE 16.1 km/h 30.6 km/h 74 % 0.0 mm
13:37 8.8 °C 4.0 °C 1024.3 hPa NNE 17.7 km/h 25.7 km/h 72 % 0.0 mm
13:42 8.8 °C 2.8 °C 1024.3 hPa North 12.9 km/h 33.8 km/h 66 % 0.0 mm
13:47 8.8 °C 2.8 °C 1024.3 hPa NE 22.5 km/h 40.2 km/h 66 % 0.0 mm
13:52 8.7 °C 3.3 °C 1024.3 hPa North 14.5 km/h 40.2 km/h 69 % 0.0 mm
13:57 8.6 °C 3.6 °C 1024.3 hPa ENE 12.9 km/h 40.2 km/h 71 % 0.0 mm
14:02 8.6 °C 3.4 °C 1024.3 hPa NNW 8.0 km/h 35.4 km/h 70 % 0.0 mm
14:07 8.8 °C 3.4 °C 1024.3 hPa NNW 8.0 km/h 25.7 km/h 69 % 0.0 mm
14:12 8.9 °C 3.1 °C 1024.3 hPa NNW 16.1 km/h 27.4 km/h 67 % 0.0 mm
14:17 9.1 °C 3.5 °C 1024.3 hPa North 9.7 km/h 30.6 km/h 68 % 0.0 mm
14:22 9.0 °C 3.2 °C 1024.3 hPa NE 14.5 km/h 30.6 km/h 67 % 0.0 mm
14:32 9.1 °C 3.1 °C 1024.3 hPa NW 16.1 km/h 27.4 km/h 66 % 0.0 mm
14:37 8.7 °C 2.5 °C 1024.3 hPa NNW 16.1 km/h 30.6 km/h 65 % 0.0 mm
14:42 8.8 °C 2.4 °C 1024.3 hPa NE 16.1 km/h 30.6 km/h 64 % 0.0 mm
14:47 8.9 °C 2.2 °C 1024.3 hPa ENE 9.7 km/h 30.6 km/h 63 % 0.0 mm
14:57 8.9 °C 2.5 °C 1024.3 hPa NNW 8.0 km/h 32.2 km/h 64 % 0.0 mm
15:02 9.1 °C 2.9 °C 1024.3 hPa NE 11.3 km/h 32.2 km/h 65 % 0.0 mm
15:07 9.2 °C 3.2 °C 1024.3 hPa NW 6.4 km/h 32.2 km/h 66 % 0.0 mm
15:12 9.3 °C 2.8 °C 1024.3 hPa NNE 25.7 km/h 27.4 km/h 64 % 0.0 mm
15:22 9.2 °C 3.0 °C 1024.3 hPa NW 4.8 km/h 27.4 km/h 65 % 0.0 mm
15:27 9.3 °C 3.1 °C 1024.3 hPa North 22.5 km/h 27.4 km/h 65 % 0.0 mm
15:32 9.3 °C 2.8 °C 1024.3 hPa North 9.7 km/h 25.7 km/h 64 % 0.0 mm
15:42 9.2 °C 2.7 °C 1024.3 hPa NNE 8.0 km/h 30.6 km/h 64 % 0.0 mm
15:47 9.1 °C 2.9 °C 1024.3 hPa NE 8.0 km/h 30.6 km/h 65 % 0.0 mm
15:52 9.0 °C 2.8 °C 1024.3 hPa NNE 11.3 km/h 30.6 km/h 65 % 0.0 mm
15:57 8.8 °C 2.8 °C 1024.3 hPa NNW 11.3 km/h 25.7 km/h 66 % 0.0 mm
16:02 8.7 °C 2.9 °C 1024.3 hPa NW 8.0 km/h 29.0 km/h 67 % 0.0 mm
16:12 8.6 °C 2.8 °C 1024.3 hPa NW 12.9 km/h 29.0 km/h 67 % 0.0 mm
16:17 8.6 °C 2.8 °C 1024.3 hPa NNE 12.9 km/h 29.0 km/h 67 % 0.0 mm
16:22 8.6 °C 3.0 °C 1024.3 hPa North 6.4 km/h 29.0 km/h 68 % 0.0 mm
16:27 8.6 °C 3.0 °C 1024.3 hPa North 12.9 km/h 24.1 km/h 68 % 0.0 mm
16:32 8.4 °C 2.8 °C 1024.3 hPa NNE 8.0 km/h 17.7 km/h 68 % 0.0 mm
16:37 8.3 °C 2.9 °C 1024.3 hPa NNE 12.9 km/h 24.1 km/h 69 % 0.0 mm
16:42 8.2 °C 2.9 °C 1024.3 hPa North 11.3 km/h 24.1 km/h 69 % 0.0 mm
16:47 8.1 °C 3.0 °C 1024.3 hPa ENE 11.3 km/h 24.1 km/h 70 % 0.0 mm
16:52 8.1 °C 3.0 °C 1024.3 hPa NE 6.4 km/h 19.3 km/h 70 % 0.0 mm
16:57 8.1 °C 3.0 °C 1024.3 hPa NNE 3.2 km/h 17.7 km/h 70 % 0.0 mm
17:02 7.9 °C 3.0 °C 1024.3 hPa East 11.3 km/h 16.1 km/h 71 % 0.0 mm
17:07 7.8 °C 2.9 °C 1024.3 hPa North 12.9 km/h 16.1 km/h 71 % 0.0 mm
17:12 7.7 °C 2.8 °C 1024.3 hPa NNW 4.8 km/h 17.7 km/h 71 % 0.0 mm
17:17 7.4 °C 2.7 °C 1024.6 hPa North 6.4 km/h 19.3 km/h 72 % 0.0 mm
17:22 7.3 °C 2.4 °C 1024.6 hPa NNE 8.0 km/h 22.5 km/h 71 % 0.0 mm
17:32 7.2 °C 2.5 °C 1024.6 hPa NNW 4.8 km/h 20.9 km/h 72 % 0.0 mm
17:37 7.2 °C 2.5 °C 1024.6 hPa NNW 9.7 km/h 20.9 km/h 72 % 0.0 mm
17:42 7.2 °C 2.5 °C 1024.6 hPa NNW 9.7 km/h 19.3 km/h 72 % 0.0 mm
17:47 7.1 °C 2.4 °C 1024.6 hPa NNW 3.2 km/h 19.3 km/h 72 % 0.0 mm
17:52 6.9 °C 2.2 °C 1024.6 hPa NNW 8.0 km/h 16.1 km/h 72 % 0.0 mm
17:57 6.9 °C 2.2 °C 1024.6 hPa NNW 6.4 km/h 17.7 km/h 72 % 0.0 mm
18:07 6.7 °C 2.2 °C 1024.9 hPa NNW 6.4 km/h 17.7 km/h 73 % 0.0 mm
18:12 6.7 °C 2.2 °C 1024.9 hPa NW 4.8 km/h 19.3 km/h 73 % 0.0 mm
18:17 6.7 °C 2.2 °C 1024.9 hPa NE 11.3 km/h 19.3 km/h 73 % 0.0 mm
18:22 6.6 °C 2.1 °C 1024.9 hPa NW 9.7 km/h 19.3 km/h 73 % 0.0 mm
18:32 6.3 °C 2.0 °C 1024.9 hPa NNW 4.8 km/h 17.7 km/h 74 % 0.0 mm
18:42 6.1 °C 2.0 °C 1024.9 hPa NNE 3.2 km/h 14.5 km/h 75 % 0.0 mm
18:47 6.1 °C 1.8 °C 1025.3 hPa NNW 8.0 km/h 14.5 km/h 74 % 0.0 mm
18:52 6.0 °C 1.9 °C 1025.3 hPa NNW 4.8 km/h 20.9 km/h 75 % 0.0 mm
18:57 5.9 °C 1.8 °C 1025.3 hPa NNW 9.7 km/h 20.9 km/h 75 % 0.0 mm
19:02 5.9 °C 1.8 °C 1025.3 hPa Calm   14.5 km/h 75 % 0.0 mm
19:07 5.9 °C 1.8 °C 1025.3 hPa North 8.0 km/h 14.5 km/h 75 % 0.0 mm
19:12 5.8 °C 1.7 °C 1025.6 hPa NE 3.2 km/h 14.5 km/h 75 % 0.0 mm
19:17 5.7 °C 1.8 °C 1025.3 hPa NE 3.2 km/h 14.5 km/h 76 % 0.0 mm
19:22 5.7 °C 1.8 °C 1025.6 hPa ENE 4.8 km/h 12.9 km/h 76 % 0.0 mm
19:32 5.5 °C 1.8 °C 1025.6 hPa NE 4.8 km/h 9.7 km/h 77 % 0.0 mm
19:37 5.5 °C 1.8 °C 1025.6 hPa North 3.2 km/h 9.7 km/h 77 % 0.0 mm
19:42 5.5 °C 1.8 °C 1025.6 hPa North 6.4 km/h 11.3 km/h 77 % 0.0 mm
19:47 5.4 °C 1.9 °C 1026.0 hPa NE 4.8 km/h 11.3 km/h 78 % 0.0 mm
19:52 5.1 °C 1.8 °C 1026.0 hPa ENE 4.8 km/h 11.3 km/h 79 % 0.0 mm
20:02 4.8 °C 1.6 °C 1025.6 hPa Calm   12.9 km/h 80 % 0.0 mm
20:07 4.7 °C 1.5 °C 1025.6 hPa NE 1.6 km/h 12.9 km/h 80 % 0.0 mm
20:12 4.6 °C 1.6 °C 1025.6 hPa NNE 3.2 km/h 11.3 km/h 81 % 0.0 mm
20:17 4.5 °C 1.5 °C 1025.6 hPa NNW 1.6 km/h 8.0 km/h 81 % 0.0 mm
20:22 4.6 °C 1.6 °C 1025.6 hPa North 3.2 km/h 9.7 km/h 81 % 0.0 mm
20:32 4.7 °C 1.7 °C 1025.6 hPa NNW 4.8 km/h 14.5 km/h 81 % 0.0 mm
20:37 4.8 °C 1.6 °C 1025.6 hPa North 6.4 km/h 14.5 km/h 80 % 0.0 mm
20:47 4.4 °C 1.4 °C 1025.6 hPa North 8.0 km/h 11.3 km/h 81 % 0.0 mm
20:52 4.2 °C 1.4 °C 1025.6 hPa NNW 9.7 km/h 11.3 km/h 82 % 0.0 mm
20:57 4.1 °C 1.3 °C 1025.6 hPa NNW 3.2 km/h 11.3 km/h 82 % 0.0 mm
21:02 4.1 °C 1.5 °C 1025.6 hPa NNW 6.4 km/h 9.7 km/h 83 % 0.0 mm
21:12 4.3 °C 1.7 °C 1025.6 hPa NW 3.2 km/h 11.3 km/h 83 % 0.0 mm
21:17 4.4 °C 1.8 °C 1025.3 hPa NNW 3.2 km/h 11.3 km/h 83 % 0.0 mm
21:22 4.6 °C 1.8 °C 1025.3 hPa North 11.3 km/h 12.9 km/h 82 % 0.0 mm
21:27 4.7 °C 1.7 °C 1025.6 hPa NNW 3.2 km/h 14.5 km/h 81 % 0.0 mm
21:37 4.6 °C 1.8 °C 1025.3 hPa NNW 6.4 km/h 11.3 km/h 82 % 0.0 mm
21:42 4.6 °C 1.8 °C 1025.3 hPa NNW 9.7 km/h 14.5 km/h 82 % 0.0 mm
21:47 4.7 °C 1.9 °C 1025.3 hPa North 8.0 km/h 14.5 km/h 82 % 0.0 mm
21:57 4.7 °C 2.1 °C 1025.3 hPa NNE 6.4 km/h 12.9 km/h 83 % 0.0 mm
22:02 4.9 °C 2.1 °C 1025.3 hPa NNW 4.8 km/h 14.5 km/h 82 % 0.0 mm
22:07 4.8 °C 1.8 °C 1025.3 hPa Calm   16.1 km/h 81 % 0.0 mm
22:12 4.7 °C 1.7 °C 1025.3 hPa North 8.0 km/h 16.1 km/h 81 % 0.0 mm
22:17 4.7 °C 1.9 °C 1025.3 hPa NNW 6.4 km/h 14.5 km/h 82 % 0.0 mm
22:22 4.6 °C 1.8 °C 1025.3 hPa NNE 6.4 km/h 12.9 km/h 82 % 0.0 mm
22:27 4.4 °C 1.6 °C 1025.3 hPa NNW 3.2 km/h 12.9 km/h 82 % 0.0 mm
22:37 4.3 °C 1.7 °C 1024.9 hPa North 6.4 km/h 12.9 km/h 83 % 0.0 mm
22:42 4.3 °C 1.5 °C 1024.9 hPa NNE 9.7 km/h 14.5 km/h 82 % 0.0 mm
22:52 4.2 °C 1.6 °C 1024.9 hPa North 6.4 km/h 14.5 km/h 83 % 0.0 mm
22:57 4.1 °C 1.5 °C 1024.9 hPa NNW 3.2 km/h 16.1 km/h 83 % 0.0 mm
23:02 4.1 °C 1.5 °C 1024.9 hPa NNE 6.4 km/h 16.1 km/h 83 % 0.0 mm
23:07 3.9 °C 1.3 °C 1024.9 hPa NNE 8.0 km/h 16.1 km/h 83 % 0.0 mm
23:12 3.9 °C 1.4 °C 1024.9 hPa NNE 12.9 km/h 12.9 km/h 84 % 0.0 mm
23:17 3.9 °C 1.4 °C 1024.9 hPa North 6.4 km/h 14.5 km/h 84 % 0.0 mm
23:22 3.9 °C 1.4 °C 1024.6 hPa NNW 8.0 km/h 16.1 km/h 84 % 0.0 mm
23:27 3.8 °C 1.3 °C 1024.6 hPa NNW 4.8 km/h 16.1 km/h 84 % 0.0 mm
23:32 3.8 °C 1.3 °C 1024.6 hPa WNW 9.7 km/h 14.5 km/h 84 % 0.0 mm
23:37 3.7 °C 1.2 °C 1024.6 hPa NNE 4.8 km/h 14.5 km/h 84 % 0.0 mm
23:42 3.7 °C 1.2 °C 1024.3 hPa NNW 1.6 km/h 14.5 km/h 84 % 0.0 mm
23:47 3.6 °C 1.2 °C 1024.6 hPa NNW 4.8 km/h 11.3 km/h 84 % 0.0 mm
23:52 3.4 °C 1.1 °C 1024.6 hPa NNW 4.8 km/h 11.3 km/h 85 % 0.0 mm
23:57 3.4 °C 1.1 °C 1024.3 hPa NNW 3.2 km/h 11.3 km/h 85 % 0.0 mm
Meteo18
Compliments of Weather Underground - 4 mb

Script developed by  Jim McMurry - jmcmurry@mwt.net Adapted for the template by  Wim van der Kuil - Leuven-Template.eu

You find our weather info also at:

European Weather Network

Weather Underground

Equipment we use:

Weather-station
Davis Vue

Weather-program
Meteohub

Weather-server
Raspberry PI 2 B+

Provider
1 and 1

Davis Vue

Meteohub

Raspberry PI 2 B+

1 and 1